createdAt,value
2019-01-13T00:01:46.612Z,17.57
2019-01-13T00:04:15.918Z,18.40
2019-01-13T00:06:45.378Z,16.60
2019-01-13T00:09:14.712Z,17.20
2019-01-13T00:11:44.113Z,17.33
2019-01-13T00:14:13.501Z,18.17
2019-01-13T00:16:42.871Z,16.63
2019-01-13T00:19:12.189Z,16.63
2019-01-13T00:21:41.529Z,17.13
2019-01-13T00:24:10.863Z,17.97
2019-01-13T00:26:40.180Z,19.77
2019-01-13T00:29:09.494Z,18.87
2019-01-13T00:31:38.827Z,18.57
2019-01-13T00:34:08.139Z,19.57
2019-01-13T00:36:37.465Z,18.93
2019-01-13T00:39:07.801Z,19.33
2019-01-13T00:41:37.188Z,18.63
2019-01-13T00:44:06.851Z,20.60
2019-01-13T00:46:36.222Z,20.53
2019-01-13T00:49:05.588Z,18.13
2019-01-13T00:51:34.906Z,19.80
2019-01-13T00:54:04.869Z,20.07
2019-01-13T00:56:34.178Z,20.13
2019-01-13T00:59:03.511Z,18.77
2019-01-13T01:01:33.027Z,18.67
2019-01-13T01:04:02.350Z,19.83
2019-01-13T01:06:31.937Z,18.60
2019-01-13T01:09:01.232Z,17.87
2019-01-13T01:11:30.693Z,17.00
2019-01-13T01:13:59.980Z,17.03
2019-01-13T01:16:29.300Z,18.43
2019-01-13T01:18:58.598Z,17.20
2019-01-13T01:21:27.921Z,17.40
2019-01-13T01:23:57.247Z,17.17
2019-01-13T01:26:26.705Z,17.30
2019-01-13T01:28:55.996Z,17.17
2019-01-13T01:31:25.313Z,15.77
2019-01-13T01:33:54.602Z,16.70
2019-01-13T01:36:23.934Z,16.30
2019-01-13T01:38:53.361Z,16.23
2019-01-13T01:41:22.752Z,15.43
2019-01-13T01:43:52.064Z,15.47
2019-01-13T01:46:21.521Z,14.80
2019-01-13T01:48:50.845Z,15.17
2019-01-13T01:51:20.138Z,14.83
2019-01-13T01:53:49.457Z,15.80
2019-01-13T01:56:18.763Z,14.67
2019-01-13T01:58:48.080Z,15.57
2019-01-13T02:01:17.437Z,14.90
2019-01-13T02:03:46.972Z,16.13
2019-01-13T02:06:16.281Z,15.47
2019-01-13T02:08:45.597Z,14.53
2019-01-13T02:11:14.883Z,14.83
2019-01-13T02:13:44.318Z,14.60
2019-01-13T02:16:13.603Z,14.03
2019-01-13T02:18:42.924Z,14.57
2019-01-13T02:21:12.429Z,14.53
2019-01-13T02:23:41.734Z,14.97
2019-01-13T02:26:11.062Z,13.80
2019-01-13T02:28:40.420Z,14.97
2019-01-13T02:31:09.741Z,14.37
2019-01-13T02:33:39.050Z,14.20
2019-01-13T02:36:08.372Z,15.77
2019-01-13T02:38:37.674Z,14.60
2019-01-13T02:41:06.989Z,15.07
2019-01-13T02:43:36.284Z,15.93
2019-01-13T02:46:05.673Z,15.90
2019-01-13T02:48:34.964Z,15.60
2019-01-13T02:51:04.509Z,13.67
2019-01-13T02:53:33.980Z,14.30
2019-01-13T02:56:03.425Z,14.07
2019-01-13T02:58:32.996Z,15.03
2019-01-13T03:01:02.320Z,14.43
2019-01-13T03:03:31.600Z,14.20
2019-01-13T03:06:01.185Z,15.60
2019-01-13T03:08:30.547Z,15.70
2019-01-13T03:11:00.032Z,14.97
2019-01-13T03:13:29.413Z,16.43
2019-01-13T03:15:58.728Z,15.40
2019-01-13T03:18:28.090Z,14.87
2019-01-13T03:20:57.406Z,16.10
2019-01-13T03:23:27.352Z,15.60
2019-01-13T03:25:56.669Z,15.20
2019-01-13T03:28:26.231Z,16.53
2019-01-13T03:31:10.657Z,14.67
2019-01-13T03:33:27.752Z,13.53
2019-01-13T03:35:57.141Z,14.57
2019-01-13T03:38:26.439Z,14.70
2019-01-13T03:40:55.752Z,13.70
2019-01-13T03:43:25.046Z,15.60
2019-01-13T03:45:54.369Z,14.43
2019-01-13T03:48:23.717Z,15.13
2019-01-13T03:50:53.012Z,15.63
2019-01-13T03:53:22.321Z,15.17
2019-01-13T03:55:51.615Z,14.87
2019-01-13T03:58:20.925Z,14.47
2019-01-13T04:00:50.209Z,14.10
2019-01-13T04:03:19.518Z,14.17
2019-01-13T04:05:48.808Z,14.07
2019-01-13T04:08:18.126Z,13.70
2019-01-13T04:10:47.479Z,14.33
2019-01-13T04:13:16.797Z,14.00
2019-01-13T04:15:46.087Z,14.20
2019-01-13T04:18:15.545Z,13.77
2019-01-13T04:20:45.181Z,13.40
2019-01-13T04:23:14.534Z,11.67
2019-01-13T04:25:43.924Z,13.00
2019-01-13T04:28:13.312Z,13.00
2019-01-13T04:30:42.600Z,12.00
2019-01-13T04:33:11.977Z,12.57
2019-01-13T04:35:41.304Z,10.80
2019-01-13T04:38:10.658Z,11.83
2019-01-13T04:40:39.978Z,11.23
2019-01-13T04:43:09.448Z,10.33
2019-01-13T04:45:38.761Z,9.87
2019-01-13T04:48:08.056Z,10.30
2019-01-13T04:50:37.679Z,9.30
2019-01-13T04:53:06.986Z,8.20
2019-01-13T04:55:36.284Z,7.90
2019-01-13T04:58:06.007Z,7.43
2019-01-13T05:00:35.390Z,7.80
2019-01-13T05:03:05.336Z,6.93
2019-01-13T05:05:34.710Z,6.40
2019-01-13T05:08:04.455Z,6.77
2019-01-13T05:10:33.820Z,5.90
2019-01-13T05:13:03.331Z,6.00
2019-01-13T05:15:32.629Z,5.90
2019-01-13T05:18:01.909Z,5.13
2019-01-13T05:20:31.506Z,5.33
2019-01-13T05:23:00.775Z,4.80
2019-01-13T05:25:30.083Z,4.90
2019-01-13T05:27:59.363Z,4.03
2019-01-13T05:30:28.673Z,4.57
2019-01-13T05:32:57.988Z,4.30
2019-01-13T05:35:27.520Z,3.97
2019-01-13T05:37:56.846Z,4.30
2019-01-13T05:40:26.113Z,3.80
2019-01-13T05:42:55.428Z,4.20
2019-01-13T05:45:24.721Z,3.93
2019-01-13T05:47:54.015Z,3.70
2019-01-13T05:50:23.286Z,3.60
2019-01-13T05:52:53.329Z,3.70
2019-01-13T05:55:23.245Z,3.50
2019-01-13T05:57:52.559Z,3.60
2019-01-13T06:00:24.746Z,4.37
2019-01-13T06:02:54.051Z,3.73
2019-01-13T06:05:23.706Z,3.70
2019-01-13T06:07:53.003Z,3.93
2019-01-13T06:10:22.349Z,4.03
2019-01-13T06:12:51.665Z,4.37
2019-01-13T06:15:22.575Z,4.33
2019-01-13T06:17:52.254Z,4.57
2019-01-13T06:20:23.400Z,4.73
2019-01-13T06:22:52.749Z,4.50
2019-01-13T06:25:22.148Z,4.57
2019-01-13T06:27:51.556Z,5.37
2019-01-13T06:30:22.302Z,5.07
2019-01-13T06:32:51.977Z,4.93
2019-01-13T06:35:21.300Z,5.53
2019-01-13T06:37:50.874Z,5.10
2019-01-13T06:40:21.084Z,6.23
2019-01-13T06:42:50.527Z,5.93
2019-01-13T06:45:22.152Z,5.57
2019-01-13T06:47:51.523Z,6.07
2019-01-13T06:50:21.242Z,6.33
2019-01-13T06:52:50.626Z,6.70
2019-01-13T06:55:20.257Z,6.40
2019-01-13T06:57:49.850Z,7.00
2019-01-13T07:00:26.326Z,6.80
2019-01-13T07:02:56.277Z,7.00
2019-01-13T07:05:25.565Z,7.40
2019-01-13T07:07:54.840Z,7.00
2019-01-13T07:10:24.526Z,6.87
2019-01-13T07:12:53.795Z,7.00
2019-01-13T07:15:23.451Z,7.23
2019-01-13T07:17:52.807Z,11.30
2019-01-13T07:20:22.801Z,7.67
2019-01-13T07:22:52.071Z,6.70
2019-01-13T07:25:21.442Z,7.47
2019-01-13T07:27:50.928Z,7.60
2019-01-13T07:30:22.332Z,6.97
2019-01-13T07:32:51.729Z,6.50
2019-01-13T07:35:21.113Z,10.13
2019-01-13T07:37:50.546Z,10.10
2019-01-13T07:40:20.808Z,8.40
2019-01-13T07:42:50.130Z,15.53
2019-01-13T07:45:21.779Z,10.37
2019-01-13T07:47:51.090Z,15.00
2019-01-13T07:50:20.477Z,11.33
2019-01-13T07:52:49.944Z,15.60
2019-01-13T07:55:21.012Z,10.30
2019-01-13T07:57:50.395Z,8.50
2019-01-13T08:00:26.495Z,9.40
2019-01-13T08:02:56.822Z,6.03
2019-01-13T08:05:27.662Z,4.70
2019-01-13T08:07:58.224Z,6.07
2019-01-13T08:10:29.039Z,6.10
2019-01-13T08:12:59.492Z,5.07
2019-01-13T08:15:30.072Z,4.63
2019-01-13T08:18:00.464Z,4.90
2019-01-13T08:20:30.602Z,4.73
2019-01-13T08:23:00.649Z,5.70
2019-01-13T08:25:30.496Z,4.13
2019-01-13T08:27:59.802Z,4.33
2019-01-13T08:30:30.667Z,3.60
2019-01-13T08:33:00.258Z,4.50
2019-01-13T08:35:30.062Z,3.80
2019-01-13T08:37:59.374Z,3.60
2019-01-13T08:40:28.743Z,3.20
2019-01-13T08:42:58.338Z,3.53
2019-01-13T08:45:27.805Z,2.93
2019-01-13T08:47:57.102Z,3.00
2019-01-13T08:50:26.782Z,3.10
2019-01-13T08:52:56.072Z,3.27
2019-01-13T08:55:25.628Z,3.77
2019-01-13T08:57:55.300Z,4.83
2019-01-13T09:00:29.623Z,3.33
2019-01-13T09:02:58.946Z,4.43
2019-01-13T09:05:28.606Z,4.10
2019-01-13T09:07:57.890Z,4.00
2019-01-13T09:10:27.369Z,3.80
2019-01-13T09:12:57.166Z,3.87
2019-01-13T09:15:27.078Z,3.60
2019-01-13T09:17:56.703Z,4.27
2019-01-13T09:20:27.669Z,3.97
2019-01-13T09:22:58.396Z,3.80
2019-01-13T09:25:28.331Z,4.30
2019-01-13T09:27:57.635Z,3.83
2019-01-13T09:30:28.992Z,4.07
2019-01-13T09:32:58.374Z,4.27
2019-01-13T09:35:28.215Z,4.60
2019-01-13T09:37:57.627Z,4.83
2019-01-13T09:40:29.293Z,5.00
2019-01-13T09:42:59.673Z,4.73
2019-01-13T09:45:29.390Z,5.13
2019-01-13T09:47:58.668Z,5.13
2019-01-13T09:50:28.059Z,6.83
2019-01-13T09:52:57.349Z,6.87
2019-01-13T09:55:27.095Z,6.10
2019-01-13T09:57:56.476Z,5.80
2019-01-13T10:00:28.963Z,6.70
2019-01-13T10:02:58.390Z,6.47
2019-01-13T10:05:28.267Z,6.33
2019-01-13T10:07:57.704Z,6.60
2019-01-13T10:10:27.164Z,7.10
2019-01-13T10:12:56.872Z,6.63
2019-01-13T10:15:28.073Z,6.53
2019-01-13T10:17:57.462Z,7.90
2019-01-13T10:20:26.835Z,8.30
2019-01-13T10:22:56.213Z,7.90
2019-01-13T10:25:25.529Z,8.23
2019-01-13T10:27:54.847Z,8.67
2019-01-13T10:30:26.949Z,8.97
2019-01-13T10:32:57.299Z,9.20
2019-01-13T10:35:27.022Z,8.30
2019-01-13T10:37:56.752Z,9.83
2019-01-13T10:40:27.991Z,9.90
2019-01-13T10:42:57.623Z,10.10
2019-01-13T10:45:27.121Z,10.20
2019-01-13T10:47:56.499Z,10.37
2019-01-13T10:50:27.668Z,11.10
2019-01-13T10:52:59.095Z,11.03
2019-01-13T10:55:28.568Z,12.83
2019-01-13T10:57:57.999Z,12.50
2019-01-13T11:00:30.034Z,12.13
2019-01-13T11:03:02.358Z,12.93
2019-01-13T11:05:32.028Z,12.67
2019-01-13T11:08:01.960Z,13.17
2019-01-13T11:10:31.279Z,13.70
2019-01-13T11:13:01.010Z,13.60
2019-01-13T11:15:30.509Z,13.43
2019-01-13T11:17:59.894Z,12.90
2019-01-13T11:20:32.528Z,15.30
2019-01-13T11:23:02.469Z,14.30
2019-01-13T11:25:31.913Z,14.43
2019-01-13T11:28:01.280Z,14.90
2019-01-13T11:30:30.675Z,15.57
2019-01-13T11:32:59.970Z,16.57
2019-01-13T11:35:29.381Z,15.63
2019-01-13T11:37:58.693Z,14.73
2019-01-13T11:40:28.732Z,15.90
2019-01-13T11:42:58.113Z,16.10
2019-01-13T11:45:27.570Z,16.57
2019-01-13T11:47:56.886Z,16.13
2019-01-13T11:50:26.855Z,17.10
2019-01-13T11:52:56.923Z,17.67
2019-01-13T11:55:26.228Z,17.20
2019-01-13T11:57:55.605Z,15.93
2019-01-13T12:00:33.891Z,16.87
2019-01-13T12:03:06.848Z,17.20
2019-01-13T12:05:34.588Z,15.30
2019-01-13T12:08:05.248Z,15.10
2019-01-13T12:10:34.608Z,15.27
2019-01-13T12:13:04.299Z,15.30
2019-01-13T12:15:33.763Z,15.57
2019-01-13T12:18:03.185Z,14.37
2019-01-13T12:20:32.523Z,14.37
2019-01-13T12:23:01.808Z,14.23
2019-01-13T12:25:31.258Z,13.07
2019-01-13T12:28:00.631Z,12.93
2019-01-13T12:30:31.824Z,12.17
2019-01-13T12:33:01.932Z,12.53
2019-01-13T12:35:31.660Z,10.90
2019-01-13T12:38:00.957Z,10.43
2019-01-13T12:40:31.179Z,9.43
2019-01-13T12:43:00.567Z,8.83
2019-01-13T12:45:29.974Z,8.40
2019-01-13T12:47:59.366Z,7.83
2019-01-13T12:50:30.298Z,7.20
2019-01-13T12:52:59.767Z,6.93
2019-01-13T12:55:29.202Z,6.40
2019-01-13T12:57:58.550Z,6.57
2019-01-13T13:00:28.221Z,5.40
2019-01-13T13:02:57.751Z,5.83
2019-01-13T13:05:27.286Z,5.80
2019-01-13T13:07:56.557Z,6.17
2019-01-13T13:10:37.824Z,5.80
2019-01-13T13:13:07.163Z,5.43
2019-01-13T13:15:36.535Z,4.43
2019-01-13T13:18:06.414Z,4.10
2019-01-13T13:20:35.773Z,4.00
2019-01-13T13:23:05.866Z,3.77
2019-01-13T13:25:35.190Z,3.70
2019-01-13T13:28:05.056Z,3.47
2019-01-13T13:30:34.415Z,3.30
2019-01-13T13:33:04.158Z,3.10
2019-01-13T13:35:39.720Z,3.23
2019-01-13T13:38:05.450Z,3.40
2019-01-13T13:40:35.035Z,2.80
2019-01-13T13:43:04.375Z,4.13
2019-01-13T13:45:33.694Z,3.70
2019-01-13T13:48:03.000Z,3.10
2019-01-13T13:50:32.307Z,3.30
2019-01-13T13:53:01.585Z,2.87
2019-01-13T13:55:30.961Z,2.73
2019-01-13T13:58:00.624Z,2.43
2019-01-13T14:00:32.508Z,2.87
2019-01-13T14:03:01.796Z,2.90
2019-01-13T14:05:31.158Z,2.73
2019-01-13T14:08:00.459Z,2.73
2019-01-13T14:10:35.840Z,2.43
2019-01-13T14:13:06.083Z,2.90
2019-01-13T14:15:35.518Z,3.30
2019-01-13T14:18:04.969Z,3.03
2019-01-13T14:20:34.620Z,2.70
2019-01-13T14:23:03.988Z,3.00
2019-01-13T14:25:33.323Z,3.30
2019-01-13T14:28:02.610Z,3.00
2019-01-13T14:30:31.883Z,2.70
2019-01-13T14:33:01.426Z,4.77
2019-01-13T14:35:30.764Z,3.17
2019-01-13T14:38:00.122Z,3.03
2019-01-13T14:40:29.400Z,3.10
2019-01-13T14:42:58.878Z,3.23
2019-01-13T14:45:28.250Z,3.10
2019-01-13T14:47:57.677Z,3.40
2019-01-13T14:50:54.419Z,3.00
2019-01-13T14:53:36.131Z,2.90
2019-01-13T14:56:15.773Z,3.20
2019-01-13T14:58:54.224Z,4.40
2019-01-13T15:01:35.542Z,3.40
2019-01-13T15:04:15.266Z,3.03
2019-01-13T15:06:52.992Z,3.20
2019-01-13T15:09:23.672Z,3.57
2019-01-13T15:11:53.001Z,3.37
2019-01-13T15:14:22.272Z,3.13
2019-01-13T15:16:53.596Z,3.30
2019-01-13T15:19:22.956Z,3.50
2019-01-13T15:21:53.175Z,4.10
2019-01-13T15:24:23.908Z,3.97
2019-01-13T15:26:54.107Z,8.03
2019-01-13T15:29:27.978Z,4.60
2019-01-13T15:31:58.858Z,3.77
2019-01-13T15:34:29.775Z,3.87
2019-01-13T15:37:01.900Z,3.63
2019-01-13T15:39:31.181Z,3.40
2019-01-13T15:42:01.347Z,3.00
2019-01-13T15:44:30.870Z,5.10
2019-01-13T15:47:02.517Z,3.30
2019-01-13T15:49:32.364Z,4.80
2019-01-13T15:52:01.693Z,3.50
2019-01-13T15:54:32.806Z,3.10
2019-01-13T15:57:04.617Z,3.30
2019-01-13T15:59:33.933Z,3.07
2019-01-13T16:02:12.315Z,2.83
2019-01-13T16:04:41.649Z,3.20
2019-01-13T16:07:11.012Z,3.17
2019-01-13T16:09:40.396Z,3.50
2019-01-13T16:12:09.667Z,3.60
2019-01-13T16:14:38.981Z,3.67
2019-01-13T16:17:13.308Z,4.50
2019-01-13T16:19:44.536Z,3.97
2019-01-13T16:22:14.084Z,4.13
2019-01-13T16:24:43.906Z,3.87
2019-01-13T16:27:13.866Z,4.13
2019-01-13T16:29:43.155Z,5.10
2019-01-13T16:32:13.107Z,5.77
2019-01-13T16:34:42.619Z,5.60
2019-01-13T16:37:13.145Z,6.80
2019-01-13T16:39:42.560Z,6.50
2019-01-13T16:42:13.478Z,6.23
2019-01-13T16:44:45.442Z,8.53
2019-01-13T16:47:15.247Z,7.27
2019-01-13T16:49:45.209Z,7.23
2019-01-13T16:52:14.872Z,6.70
2019-01-13T16:54:44.793Z,7.73
2019-01-13T16:57:14.430Z,6.90
2019-01-13T16:59:43.748Z,7.10
2019-01-13T17:02:13.114Z,7.20
2019-01-13T17:04:42.401Z,7.63
2019-01-13T17:07:11.794Z,7.97
2019-01-13T17:09:41.066Z,8.77
2019-01-13T17:12:10.376Z,8.63
2019-01-13T17:14:39.667Z,6.87
2019-01-13T17:17:08.955Z,8.13
2019-01-13T17:19:38.253Z,7.97
2019-01-13T17:22:07.770Z,8.67
2019-01-13T17:24:37.058Z,8.33
2019-01-13T17:27:06.402Z,8.33
2019-01-13T17:29:35.707Z,8.67
2019-01-13T17:32:05.007Z,8.07
2019-01-13T17:34:36.088Z,8.30
2019-01-13T17:37:05.378Z,8.00
2019-01-13T17:39:34.659Z,8.57
2019-01-13T17:42:04.176Z,7.63
2019-01-13T17:44:34.644Z,7.80
2019-01-13T17:47:05.255Z,8.37
2019-01-13T17:49:34.522Z,12.43
2019-01-13T17:52:03.900Z,8.03
2019-01-13T17:54:33.188Z,8.57
2019-01-13T17:57:02.469Z,8.20
2019-01-13T17:59:31.782Z,7.40
2019-01-13T18:02:01.168Z,7.17
2019-01-13T18:04:30.463Z,6.80
2019-01-13T18:06:59.754Z,6.87
2019-01-13T18:09:29.067Z,7.40
2019-01-13T18:11:58.766Z,6.80
2019-01-13T18:14:28.102Z,6.63
2019-01-13T18:16:57.485Z,6.93
2019-01-13T18:19:26.805Z,8.70
2019-01-13T18:21:56.090Z,6.47
2019-01-13T18:24:25.383Z,7.27
2019-01-13T18:26:54.699Z,16.53
2019-01-13T18:29:23.980Z,7.60
2019-01-13T18:31:53.300Z,8.87
2019-01-13T18:34:22.608Z,6.23
2019-01-13T18:36:51.950Z,6.63
2019-01-13T18:39:21.393Z,5.50
2019-01-13T18:41:51.031Z,4.57
2019-01-13T18:44:20.479Z,4.00
2019-01-13T18:46:49.759Z,3.63
2019-01-13T18:49:19.064Z,3.70
2019-01-13T18:51:48.427Z,3.53
2019-01-13T18:54:17.742Z,3.97
2019-01-13T18:56:47.061Z,5.07
2019-01-13T18:59:16.345Z,5.80
2019-01-13T19:01:45.648Z,7.03
2019-01-13T19:04:16.500Z,6.30
2019-01-13T19:06:45.811Z,7.13
2019-01-13T19:09:15.430Z,6.10
2019-01-13T19:11:44.769Z,6.27
2019-01-13T19:14:22.881Z,4.80
2019-01-13T19:16:55.019Z,4.40
2019-01-13T19:19:24.304Z,4.33
2019-01-13T19:21:53.626Z,4.00
2019-01-13T19:24:22.907Z,4.10
2019-01-13T19:26:52.206Z,4.43
2019-01-13T19:29:21.516Z,4.17
2019-01-13T19:31:50.855Z,4.03
2019-01-13T19:34:20.155Z,4.10
2019-01-13T19:36:49.726Z,4.30
2019-01-13T19:39:19.017Z,4.37
2019-01-13T19:41:48.348Z,3.87
2019-01-13T19:44:17.634Z,3.73
2019-01-13T19:46:46.956Z,4.00
2019-01-13T19:49:16.687Z,3.87
2019-01-13T19:51:46.076Z,4.10
2019-01-13T19:54:15.395Z,4.27
2019-01-13T19:56:44.690Z,4.33
2019-01-13T19:59:14.013Z,2.50
2019-01-13T20:01:43.315Z,2.13
2019-01-13T20:04:12.625Z,2.27
2019-01-13T20:06:42.371Z,2.27
2019-01-13T20:09:11.721Z,1.90
2019-01-13T20:11:41.014Z,3.77
2019-01-13T20:14:10.298Z,2.50
2019-01-13T20:16:39.622Z,3.03
2019-01-13T20:19:09.091Z,2.70
2019-01-13T20:21:38.414Z,2.40
2019-01-13T20:24:07.930Z,2.70
2019-01-13T20:26:37.264Z,2.77
2019-01-13T20:29:06.580Z,2.50
2019-01-13T20:31:35.888Z,2.90
2019-01-13T20:34:05.931Z,2.97
2019-01-13T20:36:35.226Z,2.60
2019-01-13T20:39:08.693Z,3.17
2019-01-13T20:41:38.135Z,2.77
2019-01-13T20:44:07.438Z,2.80
2019-01-13T20:46:36.714Z,2.87
2019-01-13T20:49:07.455Z,2.67
2019-01-13T20:51:37.887Z,3.40
2019-01-13T20:54:08.815Z,2.47
2019-01-13T20:56:39.689Z,2.90
2019-01-13T20:59:10.702Z,2.83
2019-01-13T21:01:41.165Z,2.67
2019-01-13T21:04:10.471Z,3.57
2019-01-13T21:06:39.894Z,3.10
2019-01-13T21:09:10.090Z,3.57
2019-01-13T21:11:39.405Z,3.60
2019-01-13T21:14:08.750Z,3.60
2019-01-13T21:16:38.026Z,3.10
2019-01-13T21:19:08.712Z,3.60
2019-01-13T21:21:39.409Z,3.33
2019-01-13T21:24:10.437Z,3.50
2019-01-13T21:26:40.850Z,3.47
2019-01-13T21:29:11.954Z,4.00
2019-01-13T21:31:42.472Z,4.40
2019-01-13T21:34:13.031Z,4.07
2019-01-13T21:36:43.631Z,5.17
2019-01-13T21:39:13.587Z,4.47
2019-01-13T21:41:44.534Z,4.97
2019-01-13T21:44:14.706Z,4.53
2019-01-13T21:46:45.590Z,4.00
2019-01-13T21:49:16.043Z,3.60
2019-01-13T21:51:46.923Z,3.90
2019-01-13T21:54:17.069Z,3.63
2019-01-13T21:56:47.636Z,4.20
2019-01-13T21:59:18.720Z,3.80
2019-01-13T22:01:49.116Z,4.47
2019-01-13T22:04:19.547Z,3.80
2019-01-13T22:06:50.239Z,3.97
2019-01-13T22:09:20.927Z,4.13
2019-01-13T22:11:51.617Z,4.80
2019-01-13T22:14:21.907Z,4.10
2019-01-13T22:16:52.210Z,4.10
2019-01-13T22:19:22.742Z,4.87
2019-01-13T22:21:52.996Z,4.90
2019-01-13T22:24:24.447Z,5.20
2019-01-13T22:26:54.750Z,4.80
2019-01-13T22:29:25.408Z,4.60
2019-01-13T22:31:55.792Z,5.03
2019-01-13T22:34:26.490Z,4.63
2019-01-13T22:36:56.593Z,4.47
2019-01-13T22:39:27.340Z,4.50
2019-01-13T22:41:58.087Z,4.90
2019-01-13T22:44:29.496Z,4.80
2019-01-13T22:47:00.282Z,4.93
2019-01-13T22:49:30.449Z,4.80
2019-01-13T22:52:00.716Z,4.40
2019-01-13T22:54:31.406Z,5.13
2019-01-13T22:57:01.589Z,4.40
2019-01-13T22:59:31.326Z,4.10
2019-01-13T23:02:00.792Z,4.00
2019-01-13T23:04:31.078Z,4.27
2019-01-13T23:07:01.797Z,4.13
2019-01-13T23:09:32.064Z,4.37
2019-01-13T23:12:02.482Z,4.40
2019-01-13T23:14:33.449Z,4.30
2019-01-13T23:17:04.084Z,4.17
2019-01-13T23:19:34.674Z,4.33
2019-01-13T23:22:05.380Z,4.80
2019-01-13T23:24:35.743Z,4.87
2019-01-13T23:27:06.131Z,4.37
2019-01-13T23:29:36.526Z,4.10
2019-01-13T23:32:06.748Z,4.37
2019-01-13T23:34:38.771Z,3.97
2019-01-13T23:37:09.602Z,3.73
2019-01-13T23:39:39.954Z,4.77
2019-01-13T23:42:10.243Z,4.23
2019-01-13T23:44:40.886Z,4.33
2019-01-13T23:47:11.385Z,4.03
2019-01-13T23:49:42.158Z,4.63
2019-01-13T23:52:12.851Z,5.70
2019-01-13T23:54:43.209Z,5.00
2019-01-13T23:57:13.820Z,5.50
2019-01-13T23:59:44.421Z,5.20
